ePrivacy and GPDR Cookie Consent by Cookie Consent
EmailTwitter


Surface observations / France / LFBO (07630)

Regions: Quebec | Canada | USA | Europe | France | UK | Elsewhere
Station
Display
Info & Location for LFBO (07630) | Help decoding METAR

Weather Conditions observed on 2021/12/09 at 01:30 UTC at TOULOUSE/BLAGNAC, FR (LFBO)

Sky conditions: partly cloudy.

Temperature: 4.0 Celsius.

Dewpoint: 3.0 Celsius.

Relative Humidity: 93%

Windchill Factor 0.

Winds: West at 22 km/h or 12 knots.

Mean Sea level Pressure: 101.20 kilopascals.

Horizontal visibility: 6.21 statute miles or 9.94 kilometers.

Height of the Ceiling: 1067 metres ( 3500 feet ).

Coded METAR:

LFBO 090130Z AUTO 27012KT 9999 SCT012 SCT020 BKN035 04/03 Q1012 TEMPO 4000 SHRA

BKN012 SCT025TCU=